Summit, Illinois
Current Conditions -  °F | °C
As of 11:53 AM on Friday 28 Nov 2014 (Local Time) from KMDW Reporting Station
Overcast Overcast  
Wind Chill: 20°   Ceiling: 11000
Heat Index: 30°   Visibility: 10mi
Dew Point: 16°   Wind: 13mph
Humidity: 56%   Direction: 150°SSE
Pressure: 30.12"   Gusts: 23mph
Location:  41.7806°N, 87.8151°W
Report Text: KMDW 281753Z 15011G20KT 10SM OVC110 M01/M09 A3012 RMK AO2 SLP214 60000 T10111089 11011 21056 58046 $
Loading
Personal Weather Stations






























Interactive Weather Map New forecast layout! Learn more

10-Day Weather Forecast

Advertisements
Track Severe Weather on mobile